Time;durP1;ratioP1;P1;durP2;ratioP2;P2;SDS_P1;SDS_P2;PMS_P1;PMS_P2;Temp;Humidity;BMP_temperature;BMP_pressure;BME280_temperature;BME280_humidity;BME280_pressure;Samples;Min_cycle;Max_cycle;Signal;HPM_P1;HPM_P2
2020/12/10 00:01:51;;;;;;;32.67;18.50;;;;;;;2.91;75.33;99773.84;5062749;28;20112;-85
2020/12/10 00:04:18;;;;;;;31.40;18.55;;;;;;;2.93;75.41;99772.03;5071780;28;20025;-84
2020/12/10 00:06:45;;;;;;;32.05;18.63;;;;;;;2.97;74.78;99764.09;5076182;28;20109;-84
2020/12/10 00:09:11;;;;;;;31.90;19.00;;;;;;;2.93;75.33;99765.06;5063789;28;20128;-84
2020/12/10 00:11:38;;;;;;;31.85;19.13;;;;;;;2.87;75.65;99772.19;5057380;28;20144;-85
2020/12/10 00:14:05;;;;;;;32.75;18.65;;;;;;;2.79;76.05;99764.56;5052033;28;20060;-86
2020/12/10 00:16:32;;;;;;;32.67;19.20;;;;;;;2.77;76.78;99759.34;5044541;28;20048;-85
2020/12/10 00:18:59;;;;;;;33.05;19.30;;;;;;;2.78;75.71;99763.69;5062870;28;20053;-84
2020/12/10 00:21:25;;;;;;;32.85;18.27;;;;;;;2.77;76.36;99755.88;5061185;28;20111;-85
2020/12/10 00:23:52;;;;;;;33.42;19.58;;;;;;;2.73;76.25;99754.25;5062085;28;20055;-84
2020/12/10 00:26:21;;;;;;;33.88;19.45;;;;;;;2.76;77.12;99757.63;5059520;28;20430;-84
2020/12/10 00:28:48;;;;;;;31.60;19.02;;;;;;;2.85;76.29;99756.53;5056365;28;20041;-86
2020/12/10 00:31:14;;;;;;;30.90;19.38;;;;;;;2.79;75.97;99759.31;5059866;28;20040;-83
2020/12/10 00:33:41;;;;;;;36.10;20.50;;;;;;;2.72;76.49;99749.91;5064921;28;20049;-85
2020/12/10 00:36:08;;;;;;;34.35;20.27;;;;;;;2.64;76.51;99734.44;5066630;28;20040;-84
2020/12/10 00:38:37;;;;;;;33.13;19.55;;;;;;;2.67;76.88;99747.44;5064415;28;20060;-86
2020/12/10 00:41:03;;;;;;;35.28;20.08;;;;;;;2.66;76.60;99748.31;5061892;28;20053;-85
2020/12/10 00:43:31;;;;;;;35.78;19.88;;;;;;;2.65;76.90;99743.13;5065044;28;20139;-86
2020/12/10 00:46:04;;;;;;;34.50;20.05;;;;;;;2.53;76.57;99730.34;5064702;28;20083;-85
2020/12/10 00:48:34;;;;;;;33.33;19.75;;;;;;;2.55;77.02;99739.88;5059760;28;20053;-83
2020/12/10 00:51:02;;;;;;;31.13;18.10;;;;;;;2.49;76.57;99741.78;5070608;28;20029;-84
2020/12/10 00:53:30;;;;;;;33.63;18.95;;;;;;;2.51;77.05;99740.88;5071345;28;20091;-87
2020/12/10 00:55:58;;;;;;;30.85;18.27;;;;;;;2.50;77.32;99739.16;5074673;28;20099;-84
2020/12/10 00:58:24;;;;;;;32.58;19.20;;;;;;;2.48;77.33;99725.25;5070342;28;20084;-85
2020/12/10 01:00:52;;;;;;;31.38;19.52;;;;;;;2.53;76.82;99732.97;5068680;28;20116;-83
2020/12/10 01:03:19;;;;;;;34.25;19.77;;;;;;;2.52;77.14;99733.88;5073720;28;20045;-84
2020/12/10 01:05:46;;;;;;;33.17;19.00;;;;;;;2.49;77.03;99726.97;5072771;28;20053;-83
2020/12/10 01:08:14;;;;;;;33.08;19.23;;;;;;;2.49;77.04;99723.50;5071789;28;20711;-83
2020/12/10 01:10:41;;;;;;;33.40;19.45;;;;;;;2.47;77.29;99721.78;5062783;28;20141;-85
2020/12/10 01:13:08;;;;;;;32.65;19.00;;;;;;;2.51;77.77;99716.50;5053806;28;20040;-81
2020/12/10 01:15:35;;;;;;;34.95;19.02;;;;;;;2.58;76.79;99723.25;5065580;28;20053;-85
2020/12/10 01:18:02;;;;;;;31.15;18.58;;;;;;;2.54;76.43;99726.84;5056618;28;20072;-84
2020/12/10 01:20:30;;;;;;;30.50;18.95;;;;;;;2.50;76.36;99727.84;5055957;28;20112;-84
2020/12/10 01:22:58;;;;;;;33.55;19.15;;;;;;;2.49;76.41;99729.59;5057242;28;20063;-86
2020/12/10 01:25:24;;;;;;;32.22;19.65;;;;;;;2.50;76.56;99731.31;5060327;28;20061;-84
2020/12/10 01:27:53;;;;;;;30.98;18.25;;;;;;;2.43;76.33;99720.13;5051173;28;20467;-84
2020/12/10 01:30:20;;;;;;;31.98;18.77;;;;;;;2.45;75.81;99722.72;5068793;28;20052;-84
2020/12/10 01:32:46;;;;;;;34.92;19.17;;;;;;;2.39;76.32;99723.72;5067938;28;20057;-84
2020/12/10 01:35:12;;;;;;;31.95;19.30;;;;;;;2.37;76.45;99725.50;5052163;28;20042;-85
2020/12/10 01:37:39;;;;;;;32.75;19.00;;;;;;;2.40;76.19;99725.44;5068520;28;20079;-85
2020/12/10 01:40:07;;;;;;;32.00;18.35;;;;;;;2.37;76.45;99719.41;5069268;28;20090;-84
2020/12/10 01:42:36;;;;;;;32.65;18.98;;;;;;;2.38;76.53;99718.53;5051415;28;20107;-83
2020/12/10 01:45:03;;;;;;;32.20;18.73;;;;;;;2.41;76.51;99728.91;5065126;28;20079;-83
2020/12/10 01:47:31;;;;;;;32.17;19.15;;;;;;;2.45;76.61;99727.94;5068181;28;20029;-83
2020/12/10 01:49:58;;;;;;;33.42;18.98;;;;;;;2.54;75.74;99721.63;5064700;28;20057;-84
2020/12/10 01:52:25;;;;;;;32.25;19.17;;;;;;;2.50;76.14;99726.09;5065354;28;20116;-87
2020/12/10 01:54:51;;;;;;;33.53;19.15;;;;;;;2.44;76.35;99721.84;5062256;28;20063;-86
2020/12/10 01:57:18;;;;;;;34.25;18.98;;;;;;;2.34;76.21;99712.53;5060789;28;20049;-85
2020/12/10 01:59:46;;;;;;;31.52;19.25;;;;;;;2.33;76.66;99716.03;5059190;28;20109;-85
2020/12/10 02:02:15;;;;;;;32.33;18.85;;;;;;;2.35;76.01;99716.88;5363215;22;20028;-85
2020/12/10 02:04:43;;;;;;;34.63;19.42;;;;;;;2.29;76.46;99706.56;5033928;28;20057;-85
2020/12/10 02:07:10;;;;;;;34.47;19.67;;;;;;;2.35;76.46;99714.25;5033769;28;20059;-85
2020/12/10 02:09:36;;;;;;;32.38;18.65;;;;;;;2.35;76.71;99721.22;5033408;28;20059;-85
2020/12/10 02:12:02;;;;;;;30.42;18.08;;;;;;;2.32;76.52;99711.72;5024727;28;20068;-85
2020/12/10 02:14:37;;;;;;;33.47;18.83;;;;;;;2.27;76.72;99710.09;5021711;28;20445;-84
2020/12/10 02:17:05;;;;;;;33.35;19.30;;;;;;;2.22;77.38;99702.34;5040963;28;20079;-84
2020/12/10 02:19:32;;;;;;;33.65;19.63;;;;;;;2.23;76.80;99704.06;5042230;28;20113;-85
2020/12/10 02:22:00;;;;;;;32.85;19.00;;;;;;;2.20;76.69;99705.94;5049578;28;20049;-82
2020/12/10 02:24:27;;;;;;;31.70;18.77;;;;;;;2.13;76.92;99704.34;5042806;28;20057;-84
2020/12/10 02:26:54;;;;;;;31.08;18.13;;;;;;;2.18;76.92;99699.88;5026934;28;20095;-85
2020/12/10 02:29:21;;;;;;;32.67;18.88;;;;;;;2.33;76.33;99696.91;5040184;28;20056;-84
2020/12/10 02:31:47;;;;;;;31.55;17.20;;;;;;;2.34;76.02;99689.03;5034265;28;20049;-84
2020/12/10 02:34:15;;;;;;;32.08;18.45;;;;;;;2.36;76.16;99686.38;5044970;28;20041;-82
2020/12/10 02:36:43;;;;;;;35.05;19.20;;;;;;;2.40;76.42;99685.38;5041648;28;20047;-81
2020/12/10 02:39:10;;;;;;;33.70;18.80;;;;;;;2.42;75.76;99689.69;5047563;28;20376;-84
2020/12/10 02:41:37;;;;;;;31.40;17.42;;;;;;;2.36;76.24;99689.00;5050372;28;20048;-82
2020/12/10 02:44:05;;;;;;;33.50;18.35;;;;;;;2.30;76.74;99686.50;5053023;28;20564;-84
2020/12/10 02:46:32;;;;;;;32.75;19.45;;;;;;;2.30;76.53;99687.38;5045480;28;20060;-82
2020/12/10 02:48:59;;;;;;;30.98;17.40;;;;;;;2.38;76.54;99685.41;5038262;28;20074;-83
2020/12/10 02:51:26;;;;;;;30.65;18.15;;;;;;;2.45;75.89;99678.28;5025156;28;20403;-84
2020/12/10 02:53:53;;;;;;;31.50;18.35;;;;;;;2.51;75.66;99685.13;5025891;28;20409;-83
2020/12/10 02:56:19;;;;;;;32.58;18.33;;;;;;;2.54;75.02;99685.88;5024933;28;20480;-84
2020/12/10 02:58:46;;;;;;;29.20;17.70;;;;;;;2.54;74.92;99682.41;5019963;28;20109;-83
2020/12/10 03:01:13;;;;;;;30.80;19.02;;;;;;;2.57;74.75;99682.34;5021206;28;20037;-83
2020/12/10 03:03:39;;;;;;;30.58;17.70;;;;;;;2.53;74.50;99676.31;5036548;28;20046;-83
2020/12/10 03:06:08;;;;;;;29.67;18.13;;;;;;;2.47;74.47;99676.50;5029658;28;20085;-84
2020/12/10 03:08:36;;;;;;;31.25;17.42;;;;;;;2.42;74.72;99678.38;5036113;28;20068;-84
2020/12/10 03:11:03;;;;;;;34.40;19.17;;;;;;;2.29;75.74;99675.19;5039578;28;20064;-82
2020/12/10 03:13:30;;;;;;;33.65;18.83;;;;;;;2.31;75.40;99683.00;5032454;28;20382;-84
2020/12/10 03:15:56;;;;;;;29.42;18.70;;;;;;;2.29;75.55;99682.19;5037282;28;20041;-85
2020/12/10 03:18:25;;;;;;;31.73;19.02;;;;;;;2.22;75.68;99673.63;5039011;28;20048;-84
2020/12/10 03:20:52;;;;;;;30.25;18.27;;;;;;;2.16;75.27;99675.53;5044840;28;20042;-82
2020/12/10 03:23:20;;;;;;;30.42;18.25;;;;;;;2.20;76.22;99677.19;5054908;28;20084;-83
2020/12/10 03:25:46;;;;;;;28.67;17.48;;;;;;;2.27;75.65;99666.53;5037823;28;20538;-83
2020/12/10 03:28:13;;;;;;;30.65;18.10;;;;;;;2.34;75.47;99662.03;5041256;28;20377;-84
2020/12/10 03:30:39;;;;;;;32.90;18.35;;;;;;;2.33;74.95;99652.47;5041820;28;20033;-84
2020/12/10 03:33:06;;;;;;;28.38;17.55;;;;;;;2.29;74.74;99645.59;5040905;28;20069;-83
2020/12/10 03:35:32;;;;;;;27.67;16.70;;;;;;;2.24;74.74;99650.09;5041842;28;20049;-83
2020/12/10 03:38:00;;;;;;;28.27;17.20;;;;;;;2.20;74.72;99651.94;5040991;28;20048;-83
2020/12/10 03:40:28;;;;;;;27.63;16.33;;;;;;;2.23;74.40;99646.59;5047489;28;20132;-83
2020/12/10 03:42:55;;;;;;;26.08;15.93;;;;;;;2.18;74.73;99643.28;5038012;28;20045;-83
2020/12/10 03:45:21;;;;;;;24.55;14.88;;;;;;;2.04;74.93;99627.09;5044895;28;20057;-83
2020/12/10 03:47:47;;;;;;;27.27;17.00;;;;;;;2.18;75.31;99639.81;5046308;28;20049;-83
2020/12/10 03:50:14;;;;;;;23.92;14.52;;;;;;;2.18;74.21;99634.59;5040326;28;20069;-84
2020/12/10 03:52:40;;;;;;;23.77;13.90;;;;;;;2.20;74.16;99632.78;5049382;28;20105;-82
2020/12/10 03:55:07;;;;;;;21.92;12.65;;;;;;;2.23;73.58;99630.94;5051920;28;20067;-83
2020/12/10 03:57:33;;;;;;;22.27;13.80;;;;;;;2.23;73.91;99625.72;5048292;28;20056;-85
2020/12/10 04:00:00;;;;;;;24.67;14.23;;;;;;;2.28;73.23;99620.38;5049891;28;20065;-83
2020/12/10 04:02:26;;;;;;;19.85;12.95;;;;;;;2.38;72.73;99627.94;5049586;28;20827;-85
2020/12/10 04:04:53;;;;;;;20.13;12.25;;;;;;;2.43;72.06;99625.22;5055035;28;20104;-85
2020/12/10 04:07:21;;;;;;;22.83;13.50;;;;;;;2.42;72.61;99623.50;5052404;28;20065;-84
2020/12/10 04:09:47;;;;;;;25.08;14.27;;;;;;;2.40;72.40;99620.91;5068141;28;20049;-83
2020/12/10 04:12:13;;;;;;;25.52;14.85;;;;;;;2.29;73.08;99617.72;5057250;28;20068;-82
2020/12/10 04:14:40;;;;;;;24.45;14.98;;;;;;;2.33;74.00;99623.75;5056545;28;20068;-86
2020/12/10 04:17:06;;;;;;;24.67;15.05;;;;;;;2.30;73.65;99622.06;5061110;28;20045;-84
2020/12/10 04:19:33;;;;;;;25.58;15.13;;;;;;;2.26;74.38;99620.41;5058832;28;20077;-83
2020/12/10 04:22:00;;;;;;;25.42;15.55;;;;;;;2.32;74.03;99622.88;5051606;28;20053;-83
2020/12/10 04:24:27;;;;;;;23.65;15.23;;;;;;;2.38;73.57;99617.47;5045559;28;20132;-83
2020/12/10 04:26:54;;;;;;;23.77;15.23;;;;;;;2.47;72.77;99617.25;5036790;28;20064;-83
2020/12/10 04:29:20;;;;;;;24.30;14.70;;;;;;;2.45;73.23;99611.22;5034798;28;20065;-83
2020/12/10 04:31:47;;;;;;;24.52;14.98;;;;;;;2.44;73.28;99616.47;5036729;28;20415;-82
2020/12/10 04:34:14;;;;;;;24.35;14.10;;;;;;;2.42;73.16;99607.81;5036680;28;20109;-83
2020/12/10 04:36:41;;;;;;;24.77;14.40;;;;;;;2.39;73.11;99605.28;5034788;28;20077;-83
2020/12/10 04:39:08;;;;;;;24.55;14.93;;;;;;;2.42;73.12;99599.97;5036707;28;20071;-83
2020/12/10 04:41:36;;;;;;;24.15;15.32;;;;;;;2.40;73.11;99604.38;5038788;28;20056;-83
2020/12/10 04:44:03;;;;;;;26.00;15.43;;;;;;;2.45;73.25;99602.50;5038925;28;20091;-83
2020/12/10 04:46:30;;;;;;;22.98;13.77;;;;;;;2.40;72.64;99600.00;5037095;28;20660;-86
2020/12/10 04:48:57;;;;;;;23.60;13.88;;;;;;;2.34;72.44;99594.97;5033555;28;20417;-84
2020/12/10 04:51:25;;;;;;;22.98;14.25;;;;;;;2.32;73.23;99601.97;5037370;28;20063;-83
2020/12/10 04:53:53;;;;;;;24.13;14.38;;;;;;;2.30;73.71;99595.06;5037247;28;20077;-85
2020/12/10 04:56:20;;;;;;;23.65;14.13;;;;;;;2.28;73.66;99584.66;5034511;28;20117;-84
2020/12/10 04:58:47;;;;;;;27.85;15.43;;;;;;;2.32;73.39;99586.31;5043470;28;20049;-84
2020/12/10 05:01:16;;;;;;;23.13;13.98;;;;;;;2.34;72.60;99581.91;5051869;28;20136;-82
2020/12/10 05:03:49;;;;;;;21.90;13.57;;;;;;;2.35;72.87;99580.16;5051985;28;20071;-84
2020/12/10 05:06:16;;;;;;;25.73;14.90;;;;;;;2.35;73.14;99586.22;5028794;28;20500;-83
2020/12/10 05:08:44;;;;;;;24.95;15.13;;;;;;;2.44;72.44;99572.91;5044994;28;20069;-82
2020/12/10 05:11:11;;;;;;;25.70;15.40;;;;;;;2.47;72.54;99572.84;5052557;28;20065;-85
2020/12/10 05:13:38;;;;;;;25.60;15.50;;;;;;;2.42;72.43;99573.84;5054725;28;20051;-82
2020/12/10 05:16:20;;;;;;;27.13;15.95;;;;;;;2.31;72.60;99576.75;5039501;28;20049;-83
2020/12/10 05:18:47;;;;;;;23.20;14.13;;;;;;;2.18;73.18;99574.50;5034768;28;20049;-83
2020/12/10 05:21:15;;;;;;;24.52;14.77;;;;;;;2.18;73.04;99571.91;5035804;28;20080;-84
2020/12/10 05:23:42;;;;;;;21.58;13.23;;;;;;;2.22;72.71;99574.38;5036202;28;20080;-85
2020/12/10 05:26:10;;;;;;;23.23;13.60;;;;;;;2.23;72.35;99581.31;5036813;28;20049;-82
2020/12/10 05:28:46;;;;;;;23.63;14.35;;;;;;;2.12;72.92;99572.91;5033172;28;20057;-84
2020/12/10 05:31:20;;;;;;;27.00;16.58;;;;;;;2.10;73.42;99574.69;5041838;28;20081;-86
2020/12/10 05:34:00;;;;;;;26.50;15.52;;;;;;;2.05;73.85;99584.38;5050731;28;20041;-86
2020/12/10 05:36:28;;;;;;;22.67;13.82;;;;;;;1.95;73.94;99573.31;5042525;28;20096;-85
2020/12/10 05:39:10;;;;;;;25.92;15.60;;;;;;;1.94;73.78;99586.41;5054341;28;20051;-83
2020/12/10 05:41:43;;;;;;;25.92;15.27;;;;;;;1.89;74.51;99589.13;5042800;28;20046;-83
2020/12/10 05:44:20;;;;;;;23.67;14.85;;;;;;;1.91;74.48;99589.09;5042202;28;20144;-84
2020/12/10 05:46:51;;;;;;;25.27;15.05;;;;;;;1.90;74.34;99587.38;5027976;28;20056;-83
2020/12/10 05:49:18;;;;;;;25.30;14.75;;;;;;;1.89;74.09;99588.31;5034577;28;20099;-87
2020/12/10 05:51:49;;;;;;;23.60;14.98;;;;;;;1.92;74.79;99585.59;5033158;28;20052;-84
2020/12/10 05:54:17;;;;;;;29.00;17.23;;;;;;;2.05;74.55;99592.22;5035703;28;20045;-85
2020/12/10 05:57:00;;;;;;;24.88;15.23;;;;;;;2.17;74.54;99594.53;5030286;28;20791;-85
2020/12/10 05:59:27;;;;;;;24.13;14.75;;;;;;;2.13;73.57;99592.03;5036086;28;20049;-85
2020/12/10 06:02:09;;;;;;;27.47;16.33;;;;;;;2.01;74.62;99593.22;5034947;28;20108;-85
2020/12/10 06:04:36;;;;;;;27.35;16.48;;;;;;;2.00;74.79;99584.53;5034615;28;20584;-87
2020/12/10 06:07:04;;;;;;;26.77;15.77;;;;;;;2.06;74.30;99594.78;5027379;28;20056;-84
2020/12/10 06:09:42;;;;;;;24.63;14.18;;;;;;;2.13;74.00;99592.03;5031031;28;20060;-84
2020/12/10 06:12:08;;;;;;;21.85;13.38;;;;;;;2.19;73.49;99595.38;5037696;28;20053;-83
2020/12/10 06:14:51;;;;;;;21.95;13.18;;;;;;;2.21;72.78;99598.78;5034503;28;20104;-83
2020/12/10 06:17:19;;;;;;;21.88;13.10;;;;;;;2.20;72.98;99596.22;5028414;28;20065;-86
2020/12/10 06:19:45;;;;;;;25.08;14.75;;;;;;;2.14;73.03;99597.22;5051303;28;20041;-84
2020/12/10 06:22:36;;;;;;;24.40;15.18;;;;;;;2.04;72.99;99590.53;5045873;28;20060;-84
2020/12/10 06:25:24;;;;;;;24.52;14.05;;;;;;;1.98;73.05;99601.97;5039386;28;20045;-85
2020/12/10 06:27:51;;;;;;;27.60;15.48;;;;;;;2.01;72.94;99601.06;5032671;28;20148;-85
2020/12/10 06:30:20;;;;;;;27.15;15.45;;;;;;;2.01;73.64;99593.22;5052479;28;20045;-85
2020/12/10 06:32:51;;;;;;;28.38;15.95;;;;;;;2.06;73.35;99593.94;5047280;28;20081;-83
2020/12/10 06:35:35;;;;;;;28.92;15.50;;;;;;;2.13;73.37;99605.09;5041580;28;20048;-85
2020/12/10 06:38:03;;;;;;;28.10;16.05;;;;;;;2.15;73.35;99604.16;5027615;28;20472;-83
2020/12/10 06:40:40;;;;;;;23.63;14.18;;;;;;;2.24;71.88;99598.69;5037230;28;20065;-84
2020/12/10 06:43:09;;;;;;;25.45;15.02;;;;;;;2.17;72.45;99605.00;5034653;28;20073;-83
2020/12/10 06:45:37;;;;;;;27.08;15.15;;;;;;;2.09;72.56;99605.16;5050463;28;20055;-85
2020/12/10 06:48:08;;;;;;;24.73;14.95;;;;;;;2.08;73.31;99593.00;5039712;28;20077;-82
2020/12/10 06:50:40;;;;;;;26.60;15.05;;;;;;;2.12;72.80;99591.19;5043642;28;20049;-84
2020/12/10 06:53:07;;;;;;;28.27;15.98;;;;;;;2.22;72.64;99590.03;5041197;28;20104;-82
2020/12/10 06:55:55;;;;;;;26.95;16.67;;;;;;;2.24;72.57;99592.63;5043792;28;20049;-84
2020/12/10 06:58:43;;;;;;;27.73;16.27;;;;;;;2.12;72.59;99596.41;5036391;28;20073;-86
2020/12/10 07:01:38;;;;;;;28.42;15.68;;;;;;;2.06;73.27;99607.00;5044488;28;20045;-82
2020/12/10 07:06:47;;;;;;;32.03;16.92;;;;;;;1.99;73.95;99611.53;5035413;28;20049;-85
2020/12/10 07:09:14;;;;;;;35.42;18.05;;;;;;;2.05;73.88;99610.50;5032117;28;20053;-83
2020/12/10 07:11:44;;;;;;;27.92;16.27;;;;;;;2.07;73.48;99609.56;5036692;28;20045;-84
2020/12/10 07:14:43;;;;;;;31.35;16.65;;;;;;;2.14;73.20;99606.81;5051454;28;20054;-84
2020/12/10 07:17:12;;;;;;;40.25;15.98;;;;;;;2.22;73.20;99612.69;5015175;28;20531;-84
2020/12/10 07:19:40;;;;;;;28.10;16.10;;;;;;;2.22;73.25;99620.53;5030651;28;20083;-85
2020/12/10 07:22:10;;;;;;;28.30;16.15;;;;;;;2.22;72.57;99600.50;5024167;28;20440;-85
2020/12/10 07:24:37;;;;;;;26.52;15.98;;;;;;;2.32;72.42;99616.81;5029744;28;20049;-85
2020/12/10 07:27:04;;;;;;;26.00;15.43;;;;;;;2.37;72.22;99605.31;5028712;28;20049;-84
2020/12/10 07:29:30;;;;;;;28.30;15.93;;;;;;;2.38;71.72;99612.25;5034632;28;20046;-85
2020/12/10 07:32:03;;;;;;;31.27;16.77;;;;;;;2.22;72.65;99612.69;5028197;28;20101;-85
2020/12/10 07:34:41;;;;;;;27.17;16.55;;;;;;;2.12;73.48;99609.47;5036209;28;20053;-85
2020/12/10 07:37:30;;;;;;;27.33;16.60;;;;;;;2.07;73.68;99611.31;5029040;28;20452;-83
2020/12/10 07:40:14;;;;;;;30.25;17.02;;;;;;;2.14;73.43;99606.81;5029463;28;20051;-85
2020/12/10 07:42:41;;;;;;;31.13;16.85;;;;;;;2.24;73.47;99608.28;5031690;28;20144;-86
2020/12/10 07:45:18;;;;;;;35.50;17.73;;;;;;;2.29;73.07;99614.25;5026661;28;20050;-85
2020/12/10 07:47:58;;;;;;;27.80;16.67;;;;;;;2.34;73.01;99610.66;5033460;28;20053;-82
2020/12/10 07:50:26;;;;;;;30.37;17.60;;;;;;;2.35;72.53;99606.28;5039642;28;20046;-87
2020/12/10 07:52:56;;;;;;;;;;;;;;;2.36;72.60;99608.81;5028047;28;20112;-82
2020/12/10 07:55:26;;;;;;;30.65;16.48;;;;;;;2.34;72.63;99609.78;5040564;28;19929;-86
2020/12/10 07:58:18;;;;;;;28.27;16.15;;;;;;;2.29;72.06;99622.97;5046119;28;20041;-86
2020/12/10 08:00:46;;;;;;;28.27;17.10;;;;;;;2.23;72.93;99610.03;5039226;28;20089;-84
2020/12/10 08:03:25;;;;;;;30.83;17.83;;;;;;;2.21;72.89;99614.44;5042130;28;20056;-84
2020/12/10 08:06:14;;;;;;;30.90;17.92;;;;;;;2.20;72.15;99607.53;5042224;28;20057;-83
2020/12/10 08:08:45;;;;;;;30.23;17.58;;;;;;;2.17;72.22;99609.34;5037411;28;20053;-86
2020/12/10 08:11:15;;;;;;;31.67;18.30;;;;;;;2.21;72.18;99611.81;5041051;28;20524;-85
2020/12/10 08:13:56;;;;;;;29.83;18.20;;;;;;;2.28;72.80;99615.16;5044133;28;20025;-86
2020/12/10 08:16:24;;;;;;;30.92;18.10;;;;;;;2.27;72.47;99614.28;5037673;28;20045;-85
2020/12/10 08:18:51;;;;;;;29.60;18.42;;;;;;;2.30;72.61;99619.44;5043651;28;20046;-86
2020/12/10 08:21:32;;;;;;;32.17;19.23;;;;;;;2.33;72.76;99615.91;5040951;28;20099;-84
2020/12/10 08:24:04;;;;;;;34.20;19.77;;;;;;;2.43;76.41;99615.63;5040483;28;20466;-85
2020/12/10 08:26:32;;;;;;;31.45;19.23;;;;;;;2.61;77.66;99613.41;5049670;28;20110;-84
2020/12/10 08:29:02;;;;;;;30.92;18.80;;;;;;;2.76;72.95;99623.44;5047398;28;20041;-84
2020/12/10 08:31:34;;;;;;;33.92;19.40;;;;;;;2.77;73.19;99622.53;5048956;28;20049;-85
2020/12/10 08:34:01;;;;;;;36.50;19.73;;;;;;;2.89;74.73;99619.59;5036803;28;20140;-83
2020/12/10 08:36:34;;;;;;;34.03;19.65;;;;;;;3.03;71.23;99622.66;5044748;28;20057;-84
2020/12/10 08:39:04;;;;;;;32.05;19.17;;;;;;;2.94;70.31;99628.16;5043245;28;20045;-84
2020/12/10 08:41:36;;;;;;;33.30;19.48;;;;;;;2.81;70.42;99627.66;5040730;28;20041;-87
2020/12/10 08:44:08;;;;;;;33.70;18.52;;;;;;;2.63;70.32;99628.16;5044724;28;20033;-85
2020/12/10 08:46:36;;;;;;;32.45;19.13;;;;;;;2.51;71.08;99617.19;5051321;28;20069;-85
2020/12/10 08:49:17;;;;;;;33.33;19.70;;;;;;;2.48;71.72;99620.72;5046500;28;20076;-85
2020/12/10 08:51:50;;;;;;;29.90;17.30;;;;;;;2.38;71.84;99629.69;5038891;28;20050;-87
2020/12/10 08:54:17;;;;;;;31.98;18.70;;;;;;;2.20;71.33;99612.75;5039346;28;20499;-86
2020/12/10 08:56:45;;;;;;;29.52;17.77;;;;;;;2.20;72.28;99615.38;5045653;28;20049;-84
2020/12/10 08:59:12;;;;;;;29.60;18.27;;;;;;;2.25;72.47;99618.69;5042942;28;20113;-84
2020/12/10 09:01:52;;;;;;;29.92;17.27;;;;;;;2.36;72.48;99618.44;5040465;28;20068;-84
2020/12/10 09:04:21;;;;;;;33.50;17.10;;;;;;;2.44;72.11;99619.94;5036832;28;20049;-88
2020/12/10 09:06:49;;;;;;;30.00;17.77;;;;;;;2.52;71.48;99617.09;5041704;28;20045;-85
2020/12/10 09:09:19;;;;;;;30.50;17.77;;;;;;;2.53;70.02;99615.34;5053181;28;20072;-85
2020/12/10 09:11:53;;;;;;;33.17;17.05;;;;;;;2.45;70.56;99616.44;5051988;28;20070;-85
2020/12/10 09:14:22;;;;;;;30.23;18.10;;;;;;;2.39;71.16;99613.97;5053814;28;20156;-83
2020/12/10 09:16:53;;;;;;;36.00;18.63;;;;;;;2.32;71.89;99616.81;5046461;28;20054;-85
2020/12/10 09:19:19;;;;;;;32.70;19.73;;;;;;;2.32;72.17;99622.88;5063892;28;20053;-85
2020/12/10 09:21:47;;;;;;;33.58;18.15;;;;;;;2.25;71.92;99610.88;5054659;28;20053;-85
2020/12/10 09:24:25;;;;;;;37.42;19.60;;;;;;;2.25;72.43;99607.38;5056503;28;20040;-84
2020/12/10 09:26:54;;;;;;;35.80;20.63;;;;;;;2.28;72.43;99610.78;5051737;28;20049;-84
2020/12/10 09:29:20;;;;;;;34.67;19.90;;;;;;;2.26;72.66;99604.75;5050100;28;20068;-84
2020/12/10 09:31:54;;;;;;;34.10;19.40;;;;;;;2.29;72.36;99615.13;5049564;28;20068;-86
2020/12/10 09:34:22;;;;;;;33.05;19.00;;;;;;;2.33;71.48;99616.75;5054682;28;20113;-83
2020/12/10 09:36:49;;;;;;;32.80;18.70;;;;;;;2.35;71.43;99607.13;5053949;28;20053;-84
2020/12/10 09:39:21;;;;;;;35.40;19.92;;;;;;;2.45;71.92;99607.75;5054075;28;20045;-87
2020/12/10 09:41:48;;;;;;;35.90;19.45;;;;;;;2.47;71.71;99613.78;5048835;28;20148;-86
2020/12/10 09:44:15;;;;;;;37.40;20.83;;;;;;;2.46;72.21;99618.16;5051277;28;20049;-83
2020/12/10 09:46:41;;;;;;;37.03;20.00;;;;;;;2.44;72.28;99612.09;5048002;28;20076;-86
2020/12/10 09:49:10;;;;;;;39.42;21.23;;;;;;;2.35;72.38;99607.13;5043582;28;20045;-84
2020/12/10 09:51:49;;;;;;;39.83;21.65;;;;;;;2.39;72.91;99611.34;5045100;28;20049;-84
2020/12/10 09:54:33;;;;;;;39.22;21.88;;;;;;;2.53;73.61;99612.75;5049948;28;20046;-82
2020/12/10 09:59:37;;;;;;;39.20;21.50;;;;;;;2.65;72.42;99609.81;5054366;28;20079;-86
2020/12/10 10:02:04;;;;;;;39.15;20.25;;;;;;;2.59;72.48;99599.53;5049770;28;20033;-85
2020/12/10 10:04:34;;;;;;;44.90;25.25;;;;;;;2.71;71.97;99602.66;5046849;28;20076;-84
2020/12/10 10:07:05;;;;;;;42.45;22.10;;;;;;;2.73;71.68;99605.22;5045989;28;20064;-87
2020/12/10 10:09:33;;;;;;;36.88;21.13;;;;;;;2.64;71.49;99588.06;5045842;28;20041;-84
2020/12/10 10:12:00;;;;;;;36.83;20.10;;;;;;;2.65;72.61;99595.00;5067257;28;20076;-84
2020/12/10 10:14:27;;;;;;;38.35;20.75;;;;;;;2.81;72.11;99592.81;5065466;28;20160;-84
2020/12/10 10:16:57;;;;;;;41.42;23.17;;;;;;;2.90;70.84;99589.91;5062389;28;20037;-83
2020/12/10 10:19:24;;;;;;;34.45;20.05;;;;;;;2.80;71.32;99585.88;5069953;28;20033;-85
2020/12/10 10:21:56;;;;;;;38.22;21.95;;;;;;;2.73;71.79;99590.41;5053284;28;20065;-86
2020/12/10 10:24:23;;;;;;;37.03;20.95;;;;;;;2.67;72.35;99592.34;5065786;28;20041;-87
2020/12/10 10:27:05;;;;;;;39.80;21.95;;;;;;;2.57;72.34;99585.63;5057195;28;20055;-87
2020/12/10 10:29:32;;;;;;;38.03;21.65;;;;;;;2.53;72.44;99578.78;5044314;28;20420;-83
2020/12/10 10:31:59;;;;;;;40.50;21.77;;;;;;;2.61;71.94;99582.03;5059179;28;20040;-85
2020/12/10 10:34:26;;;;;;;37.63;21.55;;;;;;;2.65;71.82;99581.06;5061832;28;20051;-85
2020/12/10 10:36:53;;;;;;;40.13;20.85;;;;;;;2.64;71.85;99574.97;5063607;28;20060;-83
2020/12/10 10:39:20;;;;;;;41.17;21.73;;;;;;;2.63;71.97;99564.56;5055533;28;20060;-84
2020/12/10 10:41:49;;;;;;;38.05;20.52;;;;;;;2.70;71.13;99576.53;5046087;28;20064;-86
2020/12/10 10:44:17;;;;;;;34.58;20.65;;;;;;;2.71;71.89;99565.19;5058063;28;20073;-85
2020/12/10 10:46:55;;;;;;;40.97;22.00;;;;;;;2.84;72.56;99563.94;5060327;28;20092;-86
2020/12/10 10:49:24;;;;;;;38.03;21.30;;;;;;;2.98;71.34;99561.81;5047606;28;20106;-85
2020/12/10 10:51:55;;;;;;;39.30;22.42;;;;;;;2.92;71.41;99561.97;5064239;28;20052;-85
2020/12/10 10:54:22;;;;;;;44.13;22.90;;;;;;;3.02;71.66;99568.63;5038282;28;20068;-85
2020/12/10 10:56:50;;;;;;;39.88;22.52;;;;;;;3.13;71.39;99560.50;5058342;28;20049;-85
2020/12/10 10:59:17;;;;;;;40.72;21.52;;;;;;;3.24;71.25;99561.00;5065617;28;20079;-85
2020/12/10 11:01:49;;;;;;;42.63;22.98;;;;;;;3.30;70.98;99549.50;5065536;28;20057;-85
2020/12/10 11:04:17;;;;;;;41.58;22.98;;;;;;;3.39;70.36;99557.94;5063317;28;20121;-86
2020/12/10 11:06:49;;;;;;;41.38;22.20;;;;;;;3.39;70.12;99557.06;5057618;28;20068;-84
2020/12/10 11:09:16;;;;;;;41.85;22.92;;;;;;;3.28;70.02;99548.69;5057447;28;20162;-84
2020/12/10 11:11:43;;;;;;;41.22;21.45;;;;;;;3.41;70.00;99550.88;5059945;28;20148;-86
2020/12/10 11:14:11;;;;;;;38.65;22.27;;;;;;;3.46;69.73;99553.38;5058100;28;20064;-85
2020/12/10 11:16:39;;;;;;;40.13;21.65;;;;;;;3.48;69.98;99551.53;5061822;28;20571;-85
2020/12/10 11:19:06;;;;;;;36.83;21.35;;;;;;;3.41;70.11;99544.78;5044918;28;20059;-84
2020/12/10 11:21:33;;;;;;;40.50;21.90;;;;;;;3.44;69.98;99556.03;5063514;28;20048;-85
2020/12/10 11:24:00;;;;;;;39.42;21.20;;;;;;;3.45;70.22;99546.41;5044544;28;20069;-85
2020/12/10 11:26:28;;;;;;;40.80;22.45;;;;;;;3.46;69.55;99553.38;5058390;28;20095;-85
2020/12/10 11:28:57;;;;;;;37.55;21.00;;;;;;;3.43;70.07;99563.94;5045760;28;20045;-84
2020/12/10 11:31:24;;;;;;;35.05;19.50;;;;;;;3.35;69.65;99555.44;5065018;28;20073;-84
2020/12/10 11:33:51;;;;;;;33.47;18.88;;;;;;;3.21;70.16;99558.50;5061263;28;20144;-85
2020/12/10 11:36:20;;;;;;;30.50;16.40;;;;;;;3.15;69.88;99563.88;5043014;28;20049;-86
2020/12/10 11:38:50;;;;;;;33.33;17.83;;;;;;;3.14;69.83;99568.31;5056153;28;20045;-85
2020/12/10 11:41:21;;;;;;;30.77;18.38;;;;;;;3.13;70.13;99565.72;5055004;28;20545;-86
2020/12/10 11:43:50;;;;;;;31.75;17.63;;;;;;;3.22;70.59;99562.81;5060659;28;20112;-85